sensor_id;sensor_type;location;lat;lon;timestamp;pressure;altitude;pressure_sealevel;temperature;humidity
54022;BME280;39936;51.058;17.220;2023-02-18T01:49:21;101471.27;;;7.29;62.15
54022;BME280;39936;51.058;17.220;2023-02-18T01:52:49;101457.70;;;7.29;61.76
54022;BME280;39936;51.058;17.220;2023-02-18T01:56:13;101454.45;;;7.08;61.75
54022;BME280;39936;51.058;17.220;2023-02-18T01:59:39;101465.77;;;7.18;62.09
54022;BME280;39936;51.058;17.220;2023-02-18T02:03:22;101476.26;;;7.17;61.45
54022;BME280;39936;51.058;17.220;2023-02-18T02:06:44;101469.31;;;7.12;61.71
54022;BME280;39936;51.058;17.220;2023-02-18T02:10:09;101469.34;;;7.10;61.55
54022;BME280;39936;51.058;17.220;2023-02-18T02:32:31;101496.58;;;6.41;70.61
54022;BME280;39936;51.058;17.220;2023-02-18T02:40:19;101494.49;;;6.24;74.14
54022;BME280;39936;51.058;17.220;2023-02-18T02:44:19;101498.90;;;6.31;73.53
54022;BME280;39936;51.058;17.220;2023-02-18T02:55:34;101505.94;;;6.34;71.04
54022;BME280;39936;51.058;17.220;2023-02-18T02:58:59;101516.38;;;6.33;68.39
54022;BME280;39936;51.058;17.220;2023-02-18T03:05:59;101498.77;;;6.39;64.55
54022;BME280;39936;51.058;17.220;2023-02-18T03:19:46;101520.31;;;6.41;61.70
54022;BME280;39936;51.058;17.220;2023-02-18T03:23:48;101482.58;;;6.17;61.05
54022;BME280;39936;51.058;17.220;2023-02-18T03:27:35;101525.30;;;6.37;61.77
54022;BME280;39936;51.058;17.220;2023-02-18T03:30:59;101521.16;;;6.24;62.17
54022;BME280;39936;51.058;17.220;2023-02-18T03:34:36;101527.26;;;6.16;63.18
54022;BME280;39936;51.058;17.220;2023-02-18T03:38:00;101525.37;;;5.99;63.30
54022;BME280;39936;51.058;17.220;2023-02-18T03:41:27;101522.91;;;6.06;62.07
54022;BME280;39936;51.058;17.220;2023-02-18T03:46:49;101528.05;;;6.09;61.68
54022;BME280;39936;51.058;17.220;2023-02-18T03:50:21;101531.53;;;6.01;61.86
54022;BME280;39936;51.058;17.220;2023-02-18T03:53:56;101543.17;;;5.98;61.66
54022;BME280;39936;51.058;17.220;2023-02-18T04:01:29;101548.63;;;5.83;62.82
54022;BME280;39936;51.058;17.220;2023-02-18T04:05:34;101564.41;;;5.72;62.61
54022;BME280;39936;51.058;17.220;2023-02-18T04:13:18;101569.71;;;5.80;62.48
54022;BME280;39936;51.058;17.220;2023-02-18T04:20:56;101561.46;;;5.71;63.02
54022;BME280;39936;51.058;17.220;2023-02-18T04:24:15;101569.99;;;5.63;62.54
54022;BME280;39936;51.058;17.220;2023-02-18T04:27:54;101556.96;;;5.59;62.72
54022;BME280;39936;51.058;17.220;2023-02-18T04:31:20;101562.70;;;5.55;63.35
54022;BME280;39936;51.058;17.220;2023-02-18T04:34:46;101554.64;;;5.40;64.03
54022;BME280;39936;51.058;17.220;2023-02-18T04:38:01;101571.08;;;5.53;64.16
54022;BME280;39936;51.058;17.220;2023-02-18T04:41:14;101554.27;;;5.37;64.39
54022;BME280;39936;51.058;17.220;2023-02-18T04:53:01;101577.32;;;5.54;65.90
54022;BME280;39936;51.058;17.220;2023-02-18T04:57:50;101578.80;;;5.53;66.63
54022;BME280;39936;51.058;17.220;2023-02-18T05:01:23;101583.37;;;5.46;67.31
54022;BME280;39936;51.058;17.220;2023-02-18T05:05:08;101579.60;;;5.48;66.97
54022;BME280;39936;51.058;17.220;2023-02-18T05:08:35;101571.95;;;5.50;66.58
54022;BME280;39936;51.058;17.220;2023-02-18T05:12:00;101568.59;;;5.59;65.32
54022;BME280;39936;51.058;17.220;2023-02-18T05:15:47;101573.97;;;5.60;65.66
54022;BME280;39936;51.058;17.220;2023-02-18T05:19:45;101585.24;;;5.63;64.80
54022;BME280;39936;51.058;17.220;2023-02-18T05:23:06;101574.53;;;5.64;64.21
54022;BME280;39936;51.058;17.220;2023-02-18T05:26:48;101567.33;;;5.60;64.67
54022;BME280;39936;51.058;17.220;2023-02-18T05:30:14;101577.52;;;5.60;64.66
54022;BME280;39936;51.058;17.220;2023-02-18T05:34:03;101541.58;;;5.39;64.75
54022;BME280;39936;51.058;17.220;2023-02-18T05:38:01;101592.86;;;5.61;64.93
54022;BME280;39936;51.058;17.220;2023-02-18T05:41:55;101566.09;;;5.48;63.45
54022;BME280;39936;51.058;17.220;2023-02-18T05:45:51;101580.30;;;5.78;62.85
54022;BME280;39936;51.058;17.220;2023-02-18T05:49:32;101587.23;;;5.84;62.68
54022;BME280;39936;51.058;17.220;2023-02-18T05:51:13;101604.70;;;5.85;62.71
54022;BME280;39936;51.058;17.220;2023-02-18T05:55:00;101597.89;;;5.89;62.62
54022;BME280;39936;51.058;17.220;2023-02-18T05:58:42;101566.09;;;5.65;63.24
54022;BME280;39936;51.058;17.220;2023-02-18T06:02:35;101563.83;;;5.66;62.92
54022;BME280;39936;51.058;17.220;2023-02-18T06:06:27;101599.20;;;5.91;62.25
54022;BME280;39936;51.058;17.220;2023-02-18T06:07:57;101608.46;;;5.93;62.56
54022;BME280;39936;51.058;17.220;2023-02-18T06:11:56;101602.20;;;5.93;62.18
54022;BME280;39936;51.058;17.220;2023-02-18T06:15:59;101604.88;;;5.93;61.96
54022;BME280;39936;51.058;17.220;2023-02-18T06:24:39;101613.69;;;6.03;61.20
54022;BME280;39936;51.058;17.220;2023-02-18T06:28:50;101575.99;;;5.84;61.68
54022;BME280;39936;51.058;17.220;2023-02-18T06:32:26;101603.37;;;6.05;61.71
54022;BME280;39936;51.058;17.220;2023-02-18T06:36:19;101610.77;;;6.04;61.74
54022;BME280;39936;51.058;17.220;2023-02-18T06:40:46;101599.99;;;6.05;61.71
54022;BME280;39936;51.058;17.220;2023-02-18T06:44:06;101591.88;;;5.94;62.13
54022;BME280;39936;51.058;17.220;2023-02-18T06:48:08;101627.24;;;6.09;61.53
54022;BME280;39936;51.058;17.220;2023-02-18T06:52:56;101626.53;;;6.14;61.93
54022;BME280;39936;51.058;17.220;2023-02-18T07:05:08;101630.38;;;6.13;63.09
54022;BME280;39936;51.058;17.220;2023-02-18T07:09:41;101623.62;;;6.13;62.60
54022;BME280;39936;51.058;17.220;2023-02-18T07:13:38;101634.15;;;6.15;63.22
54022;BME280;39936;51.058;17.220;2023-02-18T07:34:22;101625.34;;;6.21;62.73
54022;BME280;39936;51.058;17.220;2023-02-18T07:37:34;101635.52;;;6.27;62.44
54022;BME280;39936;51.058;17.220;2023-02-18T07:41:03;101640.59;;;6.31;62.94
54022;BME280;39936;51.058;17.220;2023-02-18T07:44:34;101643.93;;;6.34;62.66
54022;BME280;39936;51.058;17.220;2023-02-18T07:47:53;101588.63;;;6.15;62.92
54022;BME280;39936;51.058;17.220;2023-02-18T07:51:12;101631.87;;;6.41;62.07
54022;BME280;39936;51.058;17.220;2023-02-18T07:54:40;101603.47;;;6.25;62.61
54022;BME280;39936;51.058;17.220;2023-02-18T07:58:13;101634.86;;;6.48;62.30
54022;BME280;39936;51.058;17.220;2023-02-18T08:03:22;101612.84;;;6.41;63.15
54022;BME280;39936;51.058;17.220;2023-02-18T08:07:04;101637.44;;;6.66;62.28
54022;BME280;39936;51.058;17.220;2023-02-18T08:11:02;101640.27;;;6.70;63.32
54022;BME280;39936;51.058;17.220;2023-02-18T08:14:16;101639.70;;;6.70;62.37
54022;BME280;39936;51.058;17.220;2023-02-18T08:17:56;101640.46;;;6.72;63.47
54022;BME280;39936;51.058;17.220;2023-02-18T08:21:52;101633.40;;;6.76;64.16
54022;BME280;39936;51.058;17.220;2023-02-18T08:25:27;101619.05;;;6.76;63.67
54022;BME280;39936;51.058;17.220;2023-02-18T08:29:42;101629.34;;;6.76;64.01
54022;BME280;39936;51.058;17.220;2023-02-18T08:33:43;101639.74;;;6.85;64.11
54022;BME280;39936;51.058;17.220;2023-02-18T08:37:10;101640.73;;;6.87;63.13
54022;BME280;39936;51.058;17.220;2023-02-18T08:40:47;101641.34;;;6.91;63.35
54022;BME280;39936;51.058;17.220;2023-02-18T08:42:39;101596.60;;;6.62;63.44
54022;BME280;39936;51.058;17.220;2023-02-18T08:52:06;101626.37;;;6.95;62.34
54022;BME280;39936;51.058;17.220;2023-02-18T08:53:29;101604.61;;;6.76;63.04
54022;BME280;39936;51.058;17.220;2023-02-18T08:57:37;101630.66;;;7.02;62.86
54022;BME280;39936;51.058;17.220;2023-02-18T09:02:26;101629.36;;;7.06;62.47
54022;BME280;39936;51.058;17.220;2023-02-18T09:05:54;101599.33;;;6.78;61.77
54022;BME280;39936;51.058;17.220;2023-02-18T09:09:50;101626.02;;;6.85;61.91
54022;BME280;39936;51.058;17.220;2023-02-18T09:16:30;101634.95;;;6.89;63.93
54022;BME280;39936;51.058;17.220;2023-02-18T09:20:56;101631.19;;;6.90;61.91
54022;BME280;39936;51.058;17.220;2023-02-18T09:24:58;101593.75;;;6.71;63.50
54022;BME280;39936;51.058;17.220;2023-02-18T09:29:15;101608.11;;;6.90;64.52
54022;BME280;39936;51.058;17.220;2023-02-18T09:33:17;101621.95;;;6.81;65.88
54022;BME280;39936;51.058;17.220;2023-02-18T09:42:00;101597.73;;;6.48;65.80
54022;BME280;39936;51.058;17.220;2023-02-18T09:45:50;101629.75;;;6.66;66.84
54022;BME280;39936;51.058;17.220;2023-02-18T09:49:26;101625.16;;;6.60;69.34
54022;BME280;39936;51.058;17.220;2023-02-18T09:59:04;101615.61;;;6.61;68.81
54022;BME280;39936;51.058;17.220;2023-02-18T10:03:23;101614.13;;;6.50;69.94
54022;BME280;39936;51.058;17.220;2023-02-18T10:11:37;101608.21;;;6.32;71.29
54022;BME280;39936;51.058;17.220;2023-02-18T10:41:02;101578.19;;;6.25;76.80
54022;BME280;39936;51.058;17.220;2023-02-18T10:57:34;101532.84;;;6.07;82.66
54022;BME280;39936;51.058;17.220;2023-02-18T11:02:17;101528.20;;;6.00;84.21
54022;BME280;39936;51.058;17.220;2023-02-18T11:20:37;101494.82;;;6.09;88.41
54022;BME280;39936;51.058;17.220;2023-02-18T11:33:14;101474.10;;;6.04;90.79
54022;BME280;39936;51.058;17.220;2023-02-18T11:37:21;101457.45;;;6.06;90.92
54022;BME280;39936;51.058;17.220;2023-02-18T11:41:34;101446.63;;;6.14;91.60
54022;BME280;39936;51.058;17.220;2023-02-18T11:53:00;101375.43;;;6.11;92.65
54022;BME280;39936;51.058;17.220;2023-02-18T11:56:38;101387.94;;;6.41;93.66
54022;BME280;39936;51.058;17.220;2023-02-18T12:00:34;101381.86;;;6.50;93.92
54022;BME280;39936;51.058;17.220;2023-02-18T12:04:28;101380.65;;;6.51;93.97
54022;BME280;39936;51.058;17.220;2023-02-18T12:09:12;101376.27;;;6.47;94.42
54022;BME280;39936;51.058;17.220;2023-02-18T12:13:13;101337.44;;;6.35;96.40
54022;BME280;39936;51.058;17.220;2023-02-18T12:53:31;101248.95;;;6.22;100.00
54022;BME280;39936;51.058;17.220;2023-02-18T13:18:41;101166.59;;;5.73;100.00
54022;BME280;39936;51.058;17.220;2023-02-18T13:22:43;101155.53;;;5.65;100.00
54022;BME280;39936;51.058;17.220;2023-02-18T13:26:20;101140.62;;;5.57;100.00
54022;BME280;39936;51.058;17.220;2023-02-18T13:41:05;101085.51;;;5.80;100.00
54022;BME280;39936;51.058;17.220;2023-02-18T13:51:45;101067.84;;;5.78;100.00
54022;BME280;39936;51.058;17.220;2023-02-18T13:55:13;101056.95;;;5.60;100.00
54022;BME280;39936;51.058;17.220;2023-02-18T14:02:33;101067.63;;;5.53;100.00
54022;BME280;39936;51.058;17.220;2023-02-18T14:05:46;101058.79;;;5.50;100.00
54022;BME280;39936;51.058;17.220;2023-02-18T14:09:43;101054.25;;;5.47;100.00
54022;BME280;39936;51.058;17.220;2023-02-18T14:21:42;101001.57;;;5.54;100.00
54022;BME280;39936;51.058;17.220;2023-02-18T14:29:33;100956.59;;;5.42;100.00
54022;BME280;39936;51.058;17.220;2023-02-18T14:32:45;100956.89;;;5.52;100.00
54022;BME280;39936;51.058;17.220;2023-02-18T14:51:33;100947.44;;;5.86;100.00
54022;BME280;39936;51.058;17.220;2023-02-18T14:54:41;100942.76;;;5.89;100.00
54022;BME280;39936;51.058;17.220;2023-02-18T14:58:05;100936.20;;;5.90;100.00
54022;BME280;39936;51.058;17.220;2023-02-18T15:01:59;100947.41;;;5.90;100.00
54022;BME280;39936;51.058;17.220;2023-02-18T15:05:31;100922.89;;;5.87;100.00
54022;BME280;39936;51.058;17.220;2023-02-18T15:09:24;100938.10;;;6.08;100.00
54022;BME280;39936;51.058;17.220;2023-02-18T15:17:15;100936.88;;;6.26;100.00
54022;BME280;39936;51.058;17.220;2023-02-18T15:21:06;100941.12;;;6.42;100.00
54022;BME280;39936;51.058;17.220;2023-02-18T15:25:00;100937.48;;;6.62;100.00
54022;BME280;39936;51.058;17.220;2023-02-18T15:32:37;100918.66;;;7.35;100.00
54022;BME280;39936;51.058;17.220;2023-02-18T15:36:16;100911.56;;;7.67;100.00
54022;BME280;39936;51.058;17.220;2023-02-18T15:39:46;100897.79;;;7.99;100.00
54022;BME280;39936;51.058;17.220;2023-02-18T15:43:02;100880.20;;;8.10;100.00
54022;BME280;39936;51.058;17.220;2023-02-18T15:50:19;100901.49;;;8.59;100.00
54022;BME280;39936;51.058;17.220;2023-02-18T15:53:52;100894.39;;;8.72;100.00
54022;BME280;39936;51.058;17.220;2023-02-18T15:57:11;100881.52;;;8.92;100.00
54022;BME280;39936;51.058;17.220;2023-02-18T16:00:49;100877.97;;;9.05;100.00
54022;BME280;39936;51.058;17.220;2023-02-18T16:04:43;100873.17;;;9.21;100.00
54022;BME280;39936;51.058;17.220;2023-02-18T16:11:56;100871.34;;;9.27;100.00
54022;BME280;39936;51.058;17.220;2023-02-18T16:15:30;100873.83;;;9.32;100.00
54022;BME280;39936;51.058;17.220;2023-02-18T16:19:21;100861.34;;;9.21;100.00
54022;BME280;39936;51.058;17.220;2023-02-18T16:22:44;100878.74;;;9.34;100.00
54022;BME280;39936;51.058;17.220;2023-02-18T16:26:15;100869.95;;;9.32;100.00
54022;BME280;39936;51.058;17.220;2023-02-18T16:29:36;100867.98;;;9.30;100.00
54022;BME280;39936;51.058;17.220;2023-02-18T16:32:59;100887.08;;;9.30;100.00
54022;BME280;39936;51.058;17.220;2023-02-18T16:36:28;100880.62;;;9.34;100.00
54022;BME280;39936;51.058;17.220;2023-02-18T16:40:20;100887.23;;;9.30;100.00
54022;BME280;39936;51.058;17.220;2023-02-18T16:43:48;100897.02;;;9.29;100.00
54022;BME280;39936;51.058;17.220;2023-02-18T16:47:14;100886.70;;;9.30;100.00
54022;BME280;39936;51.058;17.220;2023-02-18T16:50:36;100888.86;;;9.31;100.00
54022;BME280;39936;51.058;17.220;2023-02-18T16:54:16;100885.13;;;9.33;98.73
54022;BME280;39936;51.058;17.220;2023-02-18T16:58:09;100885.25;;;9.54;95.01
54022;BME280;39936;51.058;17.220;2023-02-18T17:01:44;100882.80;;;9.67;93.24
54022;BME280;39936;51.058;17.220;2023-02-18T17:05:51;100867.84;;;9.59;93.20
54022;BME280;39936;51.058;17.220;2023-02-18T17:09:22;100884.25;;;9.64;93.11
54022;BME280;39936;51.058;17.220;2023-02-18T17:13:13;100879.77;;;9.50;96.30
54022;BME280;39936;51.058;17.220;2023-02-18T17:17:15;100895.02;;;9.35;97.61
54022;BME280;39936;51.058;17.220;2023-02-18T17:20:32;100913.50;;;9.30;98.03
54022;BME280;39936;51.058;17.220;2023-02-18T17:23:57;100906.34;;;9.30;97.38
54022;BME280;39936;51.058;17.220;2023-02-18T17:27:40;100916.92;;;9.36;96.52
54022;BME280;39936;51.058;17.220;2023-02-18T17:31:18;100904.55;;;9.43;95.21
54022;BME280;39936;51.058;17.220;2023-02-18T17:34:32;100914.24;;;9.52;93.93
54022;BME280;39936;51.058;17.220;2023-02-18T17:38:14;100938.74;;;9.55;93.98
54022;BME280;39936;51.058;17.220;2023-02-18T17:42:10;100917.94;;;9.51;92.82
54022;BME280;39936;51.058;17.220;2023-02-18T17:45:48;100961.80;;;9.58;92.79
54022;BME280;39936;51.058;17.220;2023-02-18T17:48:59;100944.11;;;9.53;93.53
54022;BME280;39936;51.058;17.220;2023-02-18T17:52:38;100951.57;;;9.54;93.45
54022;BME280;39936;51.058;17.220;2023-02-18T17:56:19;100969.49;;;9.58;93.49
54022;BME280;39936;51.058;17.220;2023-02-18T17:59:37;100950.27;;;9.56;93.47
54022;BME280;39936;51.058;17.220;2023-02-18T18:02:44;100953.66;;;9.52;94.19
54022;BME280;39936;51.058;17.220;2023-02-18T18:06:30;100960.66;;;9.51;94.66
54022;BME280;39936;51.058;17.220;2023-02-18T18:10:14;100953.42;;;9.47;94.55
54022;BME280;39936;51.058;17.220;2023-02-18T18:13:59;100975.87;;;9.47;94.58
54022;BME280;39936;51.058;17.220;2023-02-18T18:17:33;100975.48;;;9.34;95.73
54022;BME280;39936;51.058;17.220;2023-02-18T18:21:01;101004.18;;;9.34;96.53
54022;BME280;39936;51.058;17.220;2023-02-18T18:24:12;100990.44;;;9.35;96.27
54022;BME280;39936;51.058;17.220;2023-02-18T18:27:25;100981.89;;;9.19;96.74
54022;BME280;39936;51.058;17.220;2023-02-18T18:31:13;100998.91;;;9.28;96.97
54022;BME280;39936;51.058;17.220;2023-02-18T18:34:24;101000.12;;;9.37;96.10
54022;BME280;39936;51.058;17.220;2023-02-18T18:38:17;101011.03;;;9.36;96.35
54022;BME280;39936;51.058;17.220;2023-02-18T18:45:38;101022.52;;;9.38;96.27
54022;BME280;39936;51.058;17.220;2023-02-18T18:49:30;101023.58;;;9.23;96.72
54022;BME280;39936;51.058;17.220;2023-02-18T18:52:53;101044.76;;;9.32;96.57
54022;BME280;39936;51.058;17.220;2023-02-18T18:56:21;101046.83;;;9.30;97.80
54022;BME280;39936;51.058;17.220;2023-02-18T19:00:19;101040.73;;;9.20;98.42
54022;BME280;39936;51.058;17.220;2023-02-18T19:03:47;101061.97;;;9.16;100.00
54022;BME280;39936;51.058;17.220;2023-02-18T19:07:53;101081.95;;;9.07;100.00
54022;BME280;39936;51.058;17.220;2023-02-18T19:11:29;101152.26;;;8.89;100.00
54022;BME280;39936;51.058;17.220;2023-02-18T19:15:29;101161.11;;;8.11;100.00
54022;BME280;39936;51.058;17.220;2023-02-18T19:18:56;101183.55;;;7.33;100.00
54022;BME280;39936;51.058;17.220;2023-02-18T19:22:09;101172.37;;;7.13;100.00
54022;BME280;39936;51.058;17.220;2023-02-18T19:25:35;101177.85;;;7.12;100.00
54022;BME280;39936;51.058;17.220;2023-02-18T19:29:16;101199.34;;;7.07;100.00
54022;BME280;39936;51.058;17.220;2023-02-18T19:32:26;101208.16;;;7.02;100.00
54022;BME280;39936;51.058;17.220;2023-02-18T19:35:35;101195.35;;;6.90;100.00
54022;BME280;39936;51.058;17.220;2023-02-18T19:38:55;101209.70;;;7.02;100.00
54022;BME280;39936;51.058;17.220;2023-02-18T19:46:24;101223.30;;;7.04;100.00
54022;BME280;39936;51.058;17.220;2023-02-18T19:49:53;101229.58;;;7.05;100.00
54022;BME280;39936;51.058;17.220;2023-02-18T19:53:41;101246.02;;;7.05;100.00
54022;BME280;39936;51.058;17.220;2023-02-18T19:57:50;101245.87;;;7.04;100.00
54022;BME280;39936;51.058;17.220;2023-02-18T20:00:58;101244.59;;;6.97;100.00
54022;BME280;39936;51.058;17.220;2023-02-18T20:04:39;101261.91;;;6.95;100.00
54022;BME280;39936;51.058;17.220;2023-02-18T20:08:05;101271.76;;;6.92;100.00
54022;BME280;39936;51.058;17.220;2023-02-18T20:12:21;101280.93;;;6.88;100.00
54022;BME280;39936;51.058;17.220;2023-02-18T20:15:59;101279.46;;;6.85;100.00
54022;BME280;39936;51.058;17.220;2023-02-18T20:19:30;101280.54;;;6.77;100.00
54022;BME280;39936;51.058;17.220;2023-02-18T20:23:11;101301.37;;;6.77;100.00
54022;BME280;39936;51.058;17.220;2023-02-18T20:26:32;101273.16;;;6.52;100.00
54022;BME280;39936;51.058;17.220;2023-02-18T20:29:52;101327.70;;;6.69;100.00
54022;BME280;39936;51.058;17.220;2023-02-18T20:33:18;101334.09;;;6.64;100.00
54022;BME280;39936;51.058;17.220;2023-02-18T20:37:06;101331.98;;;6.60;100.00
54022;BME280;39936;51.058;17.220;2023-02-18T20:40:36;101340.78;;;6.55;100.00
54022;BME280;39936;51.058;17.220;2023-02-18T20:44:18;101347.16;;;6.49;100.00
54022;BME280;39936;51.058;17.220;2023-02-18T20:47:48;101329.74;;;6.37;100.00
54022;BME280;39936;51.058;17.220;2023-02-18T20:51:31;101353.94;;;6.42;100.00
54022;BME280;39936;51.058;17.220;2023-02-18T20:54:51;101345.37;;;6.36;100.00
54022;BME280;39936;51.058;17.220;2023-02-18T20:58:45;101356.97;;;6.28;100.00
54022;BME280;39936;51.058;17.220;2023-02-18T21:02:38;101322.64;;;5.98;100.00
54022;BME280;39936;51.058;17.220;2023-02-18T21:05:57;101359.07;;;6.15;100.00
54022;BME280;39936;51.058;17.220;2023-02-18T21:09:51;101363.80;;;6.10;100.00
54022;BME280;39936;51.058;17.220;2023-02-18T21:13:23;101370.77;;;6.01;100.00
54022;BME280;39936;51.058;17.220;2023-02-18T21:16:47;101379.40;;;5.98;100.00
54022;BME280;39936;51.058;17.220;2023-02-18T21:20:31;101388.70;;;5.96;100.00
54022;BME280;39936;51.058;17.220;2023-02-18T21:24:09;101392.71;;;5.96;100.00
54022;BME280;39936;51.058;17.220;2023-02-18T21:27:15;101395.39;;;5.95;100.00
54022;BME280;39936;51.058;17.220;2023-02-18T21:30:22;101395.42;;;5.93;100.00
54022;BME280;39936;51.058;17.220;2023-02-18T21:33:52;101398.23;;;5.93;100.00
54022;BME280;39936;51.058;17.220;2023-02-18T21:37:33;101405.28;;;5.91;100.00
54022;BME280;39936;51.058;17.220;2023-02-18T21:41:46;101394.94;;;5.82;100.00
54022;BME280;39936;51.058;17.220;2023-02-18T21:44:55;101413.37;;;5.89;100.00
54022;BME280;39936;51.058;17.220;2023-02-18T21:48:03;101419.25;;;5.88;100.00
54022;BME280;39936;51.058;17.220;2023-02-18T21:51:56;101424.27;;;5.84;100.00
54022;BME280;39936;51.058;17.220;2023-02-18T21:55:55;101425.70;;;5.81;100.00
54022;BME280;39936;51.058;17.220;2023-02-18T21:59:46;101436.00;;;5.78;100.00
54022;BME280;39936;51.058;17.220;2023-02-18T22:03:15;101433.27;;;5.74;100.00
54022;BME280;39936;51.058;17.220;2023-02-18T22:06:46;101432.91;;;5.71;100.00
54022;BME280;39936;51.058;17.220;2023-02-18T22:10:16;101436.16;;;5.69;100.00
54022;BME280;39936;51.058;17.220;2023-02-18T22:14:04;101434.63;;;5.62;100.00
54022;BME280;39936;51.058;17.220;2023-02-18T22:17:12;101451.69;;;5.61;100.00
54022;BME280;39936;51.058;17.220;2023-02-18T22:21:07;101456.45;;;5.57;100.00
54022;BME280;39936;51.058;17.220;2023-02-18T22:24:37;101449.75;;;5.48;100.00
54022;BME280;39936;51.058;17.220;2023-02-18T22:28:13;101458.09;;;5.47;100.00
54022;BME280;39936;51.058;17.220;2023-02-18T22:32:24;101467.38;;;5.42;100.00
54022;BME280;39936;51.058;17.220;2023-02-18T22:36:18;101469.27;;;5.37;100.00
54022;BME280;39936;51.058;17.220;2023-02-18T22:39:44;101468.02;;;5.37;100.00
54022;BME280;39936;51.058;17.220;2023-02-18T22:43:12;101450.98;;;5.21;100.00
54022;BME280;39936;51.058;17.220;2023-02-18T22:47:13;101460.68;;;5.24;100.00
54022;BME280;39936;51.058;17.220;2023-02-18T22:51:20;101485.39;;;5.36;100.00
54022;BME280;39936;51.058;17.220;2023-02-18T22:54:31;101480.32;;;5.35;100.00
54022;BME280;39936;51.058;17.220;2023-02-18T22:58:00;101477.56;;;5.33;100.00
54022;BME280;39936;51.058;17.220;2023-02-18T23:02:18;101476.78;;;5.32;100.00
54022;BME280;39936;51.058;17.220;2023-02-18T23:06:14;101481.32;;;5.26;100.00
54022;BME280;39936;51.058;17.220;2023-02-18T23:10:16;101498.48;;;5.26;100.00
54022;BME280;39936;51.058;17.220;2023-02-18T23:13:55;101495.59;;;5.26;100.00
54022;BME280;39936;51.058;17.220;2023-02-18T23:17:38;101492.66;;;5.27;100.00
54022;BME280;39936;51.058;17.220;2023-02-18T23:21:02;101491.49;;;5.26;100.00
54022;BME280;39936;51.058;17.220;2023-02-18T23:24:53;101490.64;;;5.18;100.00
54022;BME280;39936;51.058;17.220;2023-02-18T23:28:05;101504.23;;;5.22;100.00
54022;BME280;39936;51.058;17.220;2023-02-18T23:31:56;101505.42;;;5.20;100.00
54022;BME280;39936;51.058;17.220;2023-02-18T23:35:50;101507.61;;;5.19;100.00
54022;BME280;39936;51.058;17.220;2023-02-18T23:39:14;101496.32;;;5.18;100.00
54022;BME280;39936;51.058;17.220;2023-02-18T23:42:55;101500.72;;;5.17;100.00
54022;BME280;39936;51.058;17.220;2023-02-18T23:46:33;101507.18;;;5.15;100.00
54022;BME280;39936;51.058;17.220;2023-02-18T23:49:55;101502.88;;;5.15;100.00
54022;BME280;39936;51.058;17.220;2023-02-18T23:53:16;101507.50;;;5.15;100.00
54022;BME280;39936;51.058;17.220;2023-02-18T23:56:27;101502.34;;;5.14;100.00
54022;BME280;39936;51.058;17.220;2023-02-18T23:59:47;101506.86;;;5.15;100.00
